Time;durP1;ratioP1;P1;durP2;ratioP2;P2;SDS_P1;SDS_P2;PMS_P1;PMS_P2;Temp;Humidity;BMP_temperature;BMP_pressure;BME280_temperature;BME280_humidity;BME280_pressure;Samples;Min_cycle;Max_cycle;Signal;HPM_P1;HPM_P2
2022/12/09 00:01:47;;;;;;;18.97;15.63;;;3.30;99.90;;;;;;5030991;28;20246;-49
2022/12/09 00:04:13;;;;;;;17.87;15.13;;;3.40;99.90;;;;;;5033916;28;20696;-47
2022/12/09 00:06:39;;;;;;;17.80;14.93;;;3.30;99.90;;;;;;5034262;28;20259;-50
2022/12/09 00:09:04;;;;;;;17.93;15.17;;;3.30;99.90;;;;;;5034213;28;20180;-49
2022/12/09 00:11:30;;;;;;;17.53;14.70;;;3.30;99.90;;;;;;5034287;28;20180;-49
2022/12/09 00:13:58;;;;;;;15.67;12.87;;;3.20;99.90;;;;;;5034572;28;20584;-50
2022/12/09 00:16:24;;;;;;;17.80;14.40;;;3.20;99.90;;;;;;5033974;28;20601;-49
2022/12/09 00:18:51;;;;;;;15.80;13.20;;;3.20;99.90;;;;;;5038306;28;20756;-49
2022/12/09 00:21:20;;;;;;;16.23;13.37;;;3.20;99.90;;;;;;5054524;28;20445;-54
2022/12/09 00:23:47;;;;;;;16.43;12.13;;;3.20;99.90;;;;;;5032391;28;20944;-49
2022/12/09 00:26:12;;;;;;;14.57;12.67;;;3.20;99.90;;;;;;5014816;28;20439;-49
2022/12/09 00:28:39;;;;;;;14.27;12.20;;;3.20;99.90;;;;;;5031874;28;20450;-53
2022/12/09 00:31:05;;;;;;;13.57;11.97;;;3.20;99.90;;;;;;5034357;28;20222;-53
2022/12/09 00:33:32;;;;;;;15.53;12.63;;;3.20;99.90;;;;;;5033013;28;20438;-50
2022/12/09 00:36:05;;;;;;;15.63;13.20;;;3.10;99.90;;;;;;5033595;28;20517;-53
2022/12/09 00:38:31;;;;;;;14.87;12.30;;;3.00;99.90;;;;;;5033962;28;20883;-50
2022/12/09 00:40:57;;;;;;;14.23;12.23;;;3.00;99.90;;;;;;5033233;28;20544;-53
2022/12/09 00:43:22;;;;;;;17.00;12.23;;;3.10;99.90;;;;;;5034033;28;20203;-52
2022/12/09 00:45:48;;;;;;;15.67;12.87;;;3.10;99.90;;;;;;5033475;28;20194;-53
2022/12/09 00:48:14;;;;;;;14.67;12.20;;;3.10;99.90;;;;;;5033671;28;20254;-49
2022/12/09 00:50:39;;;;;;;14.77;11.37;;;3.10;99.90;;;;;;5038657;28;20183;-51
2022/12/09 00:53:05;;;;;;;15.07;11.97;;;3.00;99.90;;;;;;5054327;28;20293;-48
2022/12/09 00:55:30;;;;;;;14.00;11.23;;;2.90;99.90;;;;;;5037507;28;20664;-50
2022/12/09 00:57:56;;;;;;;15.33;12.63;;;2.90;99.90;;;;;;5033375;28;20184;-50
2022/12/09 01:00:21;;;;;;;13.77;11.30;;;2.90;99.90;;;;;;5040490;28;20204;-54
2022/12/09 01:02:47;;;;;;;13.67;11.60;;;2.90;99.90;;;;;;5031521;28;20282;-54
2022/12/09 01:05:13;;;;;;;14.17;11.57;;;3.00;99.90;;;;;;5033297;28;20184;-49
2022/12/09 01:07:38;;;;;;;14.53;11.97;;;2.90;99.90;;;;;;5033124;28;20172;-48
2022/12/09 01:10:04;;;;;;;14.30;11.70;;;2.90;99.90;;;;;;5033274;28;20180;-47
2022/12/09 01:12:32;;;;;;;14.17;11.30;;;2.90;99.90;;;;;;5033067;28;20257;-48
2022/12/09 01:14:58;;;;;;;14.73;10.60;;;3.00;99.90;;;;;;5032979;28;20783;-49
2022/12/09 01:17:23;;;;;;;13.53;10.90;;;3.00;99.90;;;;;;5033319;28;20545;-49
2022/12/09 01:19:49;;;;;;;13.23;10.53;;;3.00;99.90;;;;;;5032911;28;20179;-51
2022/12/09 01:22:14;;;;;;;12.40;10.43;;;3.00;99.90;;;;;;5040865;28;20204;-48
2022/12/09 01:24:40;;;;;;;13.37;10.87;;;3.10;99.90;;;;;;5033130;28;20230;-48
2022/12/09 01:27:06;;;;;;;12.90;10.43;;;3.00;99.90;;;;;;5033986;28;20206;-47
2022/12/09 01:29:31;;;;;;;12.87;10.50;;;3.00;99.90;;;;;;5033381;28;20176;-52
2022/12/09 01:31:57;;;;;;;14.13;11.03;;;3.00;99.90;;;;;;5032628;28;20196;-50
2022/12/09 01:34:22;;;;;;;14.80;12.40;;;3.00;99.90;;;;;;5032748;28;20263;-48
2022/12/09 01:36:48;;;;;;;14.20;11.73;;;2.90;99.90;;;;;;5032425;28;20207;-52
2022/12/09 01:39:15;;;;;;;16.50;12.57;;;3.00;99.90;;;;;;5032718;28;20175;-52
2022/12/09 01:41:41;;;;;;;13.77;11.37;;;2.90;99.90;;;;;;5032827;28;20207;-50
2022/12/09 01:44:20;;;;;;;11.83;9.63;;;2.90;99.90;;;;;;5032075;28;20484;-53
2022/12/09 01:46:47;;;;;;;13.50;9.93;;;2.90;99.90;;;;;;5032970;28;20172;-50
2022/12/09 01:49:20;;;;;;;12.73;10.27;;;3.00;99.90;;;;;;5031915;28;20419;-50
2022/12/09 01:51:52;;;;;;;12.40;10.43;;;3.10;99.90;;;;;;5032764;28;20842;-51
2022/12/09 01:54:18;;;;;;;12.63;10.30;;;3.10;99.90;;;;;;5031767;28;20418;-48
2022/12/09 01:56:44;;;;;;;12.90;10.90;;;3.10;99.90;;;;;;5033071;28;20903;-52
2022/12/09 01:59:13;;;;;;;12.87;10.20;;;3.10;99.90;;;;;;5035550;28;20207;-49
2022/12/09 02:01:40;;;;;;;11.27;9.73;;;3.10;99.90;;;;;;5052460;28;20221;-47
2022/12/09 02:04:06;;;;;;;11.93;9.73;;;3.10;99.90;;;;;;5042383;28;20410;-51
2022/12/09 02:06:34;;;;;;;12.87;10.20;;;3.20;99.90;;;;;;5031119;28;20506;-48
2022/12/09 02:09:00;;;;;;;12.63;10.27;;;3.10;99.90;;;;;;5031545;28;20172;-53
2022/12/09 02:11:33;;;;;;;11.83;9.93;;;3.20;99.90;;;;;;5031313;28;20473;-50
2022/12/09 02:14:22;;;;;;;12.77;10.23;;;3.20;99.90;;;;;;5030748;28;20747;-47
2022/12/09 02:17:16;;;;;;;14.27;10.10;;;3.20;99.90;;;;;;5032156;28;20484;-50
2022/12/09 02:20:17;;;;;;;10.83;9.07;;;3.10;99.90;;;;;;5031380;28;20896;-49
2022/12/09 02:22:46;;;;;;;11.83;9.50;;;3.10;99.90;;;;;;5030500;28;21077;-52
2022/12/09 02:25:29;;;;;;;11.83;9.83;;;3.30;99.90;;;;;;5031165;28;20426;-50
2022/12/09 02:28:22;;;;;;;11.60;9.27;;;3.30;99.90;;;;;;5031407;28;20418;-48
2022/12/09 02:31:02;;;;;;;11.40;8.70;;;3.30;99.90;;;;;;5032339;28;20410;-52
2022/12/09 02:33:56;;;;;;;10.97;9.07;;;3.30;99.90;;;;;;5031629;28;20537;-54
2022/12/09 02:36:28;;;;;;;10.93;8.70;;;3.30;99.90;;;;;;5020056;28;20433;-50
2022/12/09 02:38:53;;;;;;;10.27;8.37;;;3.30;99.90;;;;;;5031881;28;20430;-47
2022/12/09 02:41:25;;;;;;;10.57;8.37;;;3.40;99.90;;;;;;5031681;28;20454;-50
2022/12/09 02:43:59;;;;;;;9.97;8.07;;;3.40;99.90;;;;;;5031476;28;20206;-55
2022/12/09 02:46:27;;;;;;;11.20;8.13;;;3.50;99.90;;;;;;5031831;28;20472;-52
2022/12/09 02:48:55;;;;;;;10.77;8.83;;;3.40;99.90;;;;;;5030577;28;20760;-55
2022/12/09 02:51:24;;;;;;;9.47;7.93;;;3.40;99.90;;;;;;5030833;28;20422;-50
2022/12/09 02:53:53;;;;;;;10.37;8.13;;;3.50;99.90;;;;;;5030331;28;20434;-51
2022/12/09 02:56:20;;;;;;;9.80;8.10;;;3.40;99.90;;;;;;5031423;28;20516;-48
2022/12/09 02:58:47;;;;;;;12.67;8.97;;;3.40;99.90;;;;;;5030728;28;20415;-51
2022/12/09 03:01:33;;;;;;;11.67;9.37;;;3.40;99.90;;;;;;5030057;28;20466;-53
2022/12/09 03:03:59;;;;;;;10.77;8.97;;;3.30;99.90;;;;;;5030857;28;20430;-50
2022/12/09 03:06:33;;;;;;;10.63;8.93;;;3.30;99.90;;;;;;5030661;28;20428;-52
2022/12/09 03:09:08;;;;;;;11.37;9.40;;;3.30;99.90;;;;;;5031107;28;20423;-50
2022/12/09 03:11:34;;;;;;;11.10;9.07;;;3.20;99.90;;;;;;5048417;28;20409;-52
2022/12/09 03:14:18;;;;;;;10.33;8.57;;;3.20;99.90;;;;;;5047644;28;20422;-52
2022/12/09 03:16:59;;;;;;;10.03;8.30;;;3.10;99.90;;;;;;5031395;28;20417;-49
2022/12/09 03:19:32;;;;;;;11.37;8.67;;;3.20;99.90;;;;;;5022861;28;20423;-53
2022/12/09 03:22:02;;;;;;;10.77;7.87;;;3.20;99.90;;;;;;5030805;28;20549;-47
2022/12/09 03:24:59;;;;;;;9.60;8.23;;;3.30;99.90;;;;;;5031048;28;20504;-51
2022/12/09 03:27:28;;;;;;;11.50;9.50;;;3.30;99.90;;;;;;4992424;28;20863;-49
2022/12/09 03:29:55;;;;;;;10.67;8.50;;;3.40;99.90;;;;;;4993462;28;20436;-49
2022/12/09 03:32:25;;;;;;;10.00;8.23;;;3.40;99.90;;;;;;4990111;28;20452;-50
2022/12/09 03:34:58;;;;;;;9.87;8.17;;;3.40;99.90;;;;;;4997100;28;20479;-52
2022/12/09 03:37:25;;;;;;;11.40;9.57;;;3.40;99.90;;;;;;4996666;28;20423;-50
2022/12/09 03:39:52;;;;;;;9.50;8.40;;;3.30;99.90;;;;;;4990854;28;20439;-49
2022/12/09 03:42:22;;;;;;;10.97;8.87;;;3.20;99.90;;;;;;5000427;28;20526;-50
2022/12/09 03:45:04;;;;;;;11.27;8.73;;;3.20;99.90;;;;;;4988960;28;20420;-48
2022/12/09 03:47:29;;;;;;;10.23;8.93;;;3.30;99.90;;;;;;4990790;28;20959;-48
2022/12/09 03:49:55;;;;;;;13.00;8.77;;;3.40;99.90;;;;;;4993345;28;20499;-51
2022/12/09 03:52:46;;;;;;;10.60;8.83;;;3.40;99.90;;;;;;5005299;28;20826;-49
2022/12/09 03:55:21;;;;;;;10.40;8.27;;;3.40;99.90;;;;;;4997990;28;20228;-47
2022/12/09 03:57:50;;;;;;;9.80;7.67;;;3.50;99.90;;;;;;5000967;28;20426;-50
2022/12/09 04:00:17;;;;;;;9.37;8.30;;;3.50;99.90;;;;;;5003813;28;20219;-47
2022/12/09 04:02:43;;;;;;;9.40;8.00;;;3.60;99.90;;;;;;4990825;28;20973;-51
2022/12/09 04:05:08;;;;;;;9.70;7.97;;;3.60;99.90;;;;;;5016061;28;20195;-48
2022/12/09 04:07:34;;;;;;;9.53;8.07;;;3.60;99.90;;;;;;5030574;28;20183;-48
2022/12/09 04:10:00;;;;;;;9.63;7.90;;;3.60;99.90;;;;;;5030824;28;20172;-48
2022/12/09 04:12:25;;;;;;;9.37;7.83;;;3.50;99.90;;;;;;5029938;28;20200;-51
2022/12/09 04:14:51;;;;;;;9.50;8.00;;;3.60;99.90;;;;;;5030479;28;20184;-50
2022/12/09 04:17:16;;;;;;;8.70;7.60;;;3.60;99.90;;;;;;5030732;28;20172;-48
2022/12/09 04:19:42;;;;;;;11.27;8.60;;;3.60;99.90;;;;;;5030064;28;20187;-52
2022/12/09 04:22:08;;;;;;;10.70;8.33;;;3.60;99.90;;;;;;5028996;28;20212;-52
2022/12/09 04:24:33;;;;;;;10.00;8.30;;;3.60;99.90;;;;;;5087097;22;20315;-55
2022/12/09 04:26:59;;;;;;;9.53;7.97;;;3.60;99.90;;;;;;5008179;28;20714;-54
2022/12/09 04:29:24;;;;;;;8.47;7.30;;;3.70;99.90;;;;;;5009663;28;20192;-52
2022/12/09 04:31:50;;;;;;;9.17;7.27;;;3.60;99.90;;;;;;5009694;28;20243;-50
2022/12/09 04:34:15;;;;;;;8.97;7.77;;;3.70;99.90;;;;;;5009254;28;20600;-51
2022/12/09 04:36:41;;;;;;;9.10;7.50;;;3.70;99.90;;;;;;5010465;28;20176;-54
2022/12/09 04:39:06;;;;;;;8.40;7.03;;;3.70;99.90;;;;;;5010353;28;20696;-51
2022/12/09 04:41:32;;;;;;;9.07;7.40;;;3.60;99.90;;;;;;5010270;28;20204;-52
2022/12/09 04:43:58;;;;;;;8.27;6.90;;;3.70;99.90;;;;;;5004850;28;20205;-52
2022/12/09 04:46:23;;;;;;;7.93;7.07;;;3.70;99.90;;;;;;5009707;28;20616;-53
2022/12/09 04:48:49;;;;;;;7.53;6.67;;;3.70;99.90;;;;;;5012071;28;20626;-49
2022/12/09 04:51:15;;;;;;;8.40;7.07;;;3.70;99.90;;;;;;5013894;28;20180;-52
2022/12/09 04:53:41;;;;;;;10.00;7.00;;;3.70;99.90;;;;;;5013742;28;20395;-52
2022/12/09 04:56:20;;;;;;;9.87;6.87;;;3.70;99.90;;;;;;5014126;28;20427;-52
2022/12/09 04:58:46;;;;;;;9.07;7.47;;;3.70;99.90;;;;;;5013227;28;20584;-52
2022/12/09 05:01:15;;;;;;;9.27;7.50;;;3.80;99.90;;;;;;5012672;28;20227;-52
2022/12/09 05:03:41;;;;;;;8.43;6.67;;;3.80;99.90;;;;;;5013010;28;20228;-52
2022/12/09 05:06:10;;;;;;;9.50;7.27;;;3.80;99.90;;;;;;5013538;28;20312;-53
2022/12/09 05:08:35;;;;;;;9.33;7.37;;;3.80;99.90;;;;;;5013721;28;20412;-55
2022/12/09 05:11:01;;;;;;;7.53;6.60;;;3.80;99.90;;;;;;5011896;28;20188;-56
2022/12/09 05:13:27;;;;;;;9.00;7.43;;;3.80;99.90;;;;;;5013574;28;20207;-56
2022/12/09 05:16:05;;;;;;;7.43;6.53;;;3.80;99.90;;;;;;5012407;28;20181;-53
2022/12/09 05:18:31;;;;;;;9.03;6.93;;;3.90;99.90;;;;;;5013422;28;20176;-53
2022/12/09 05:20:57;;;;;;;8.90;7.07;;;3.80;99.90;;;;;;5011830;28;20196;-55
2022/12/09 05:23:23;;;;;;;8.37;7.07;;;3.70;99.90;;;;;;5013464;28;20207;-54
2022/12/09 05:25:49;;;;;;;8.13;6.73;;;3.60;99.90;;;;;;5012705;28;20242;-52
2022/12/09 05:28:15;;;;;;;8.33;7.17;;;3.60;99.90;;;;;;5012926;28;20259;-53
2022/12/09 05:30:41;;;;;;;9.27;7.03;;;3.60;99.90;;;;;;5013381;28;20192;-54
2022/12/09 05:33:06;;;;;;;8.23;7.00;;;3.60;99.90;;;;;;5012909;28;20191;-55
2022/12/09 05:35:32;;;;;;;7.97;6.80;;;3.60;99.90;;;;;;5008612;28;20184;-56
2022/12/09 05:37:58;;;;;;;8.10;7.03;;;3.60;99.90;;;;;;5012858;28;20645;-54
2022/12/09 05:40:23;;;;;;;7.73;6.93;;;3.70;99.90;;;;;;5014887;28;20212;-52
2022/12/09 05:42:49;;;;;;;7.93;6.83;;;3.70;99.90;;;;;;5033448;28;20183;-52
2022/12/09 05:45:14;;;;;;;9.47;7.23;;;3.70;99.90;;;;;;5016992;28;20180;-53
2022/12/09 05:47:40;;;;;;;7.87;6.73;;;3.70;99.90;;;;;;5032444;28;20259;-55
2022/12/09 05:50:07;;;;;;;7.57;6.57;;;3.70;99.90;;;;;;5017879;28;20184;-51
2022/12/09 05:52:36;;;;;;;8.50;7.27;;;3.60;99.90;;;;;;5012776;28;20207;-54
2022/12/09 05:55:04;;;;;;;8.17;7.23;;;3.50;99.90;;;;;;5011837;28;20197;-56
2022/12/09 05:57:31;;;;;;;9.13;7.60;;;3.50;99.90;;;;;;5011256;28;20180;-55
2022/12/09 05:59:57;;;;;;;8.67;7.40;;;3.60;99.90;;;;;;5011659;28;20423;-56
2022/12/09 06:02:22;;;;;;;8.70;6.53;;;3.70;99.90;;;;;;5010941;28;20310;-54
2022/12/09 06:04:48;;;;;;;8.37;6.87;;;3.70;99.90;;;;;;5011077;28;20689;-53
2022/12/09 06:07:14;;;;;;;7.60;6.50;;;3.60;99.90;;;;;;5011528;28;20183;-54
2022/12/09 06:09:39;;;;;;;9.20;6.77;;;3.50;99.90;;;;;;5011748;28;20653;-53
2022/12/09 06:12:05;;;;;;;8.97;6.90;;;3.30;99.90;;;;;;5012623;28;20212;-54
2022/12/09 06:14:31;;;;;;;9.73;7.40;;;3.30;99.90;;;;;;5011690;28;20227;-54
2022/12/09 06:16:56;;;;;;;8.47;6.90;;;3.20;99.90;;;;;;5012322;28;20764;-51
2022/12/09 06:19:22;;;;;;;11.57;7.20;;;3.30;99.90;;;;;;5011784;28;20169;-52
2022/12/09 06:21:47;;;;;;;7.43;6.23;;;3.40;99.90;;;;;;5011325;28;20243;-55
2022/12/09 06:24:13;;;;;;;8.17;6.87;;;3.40;99.90;;;;;;5011687;28;20261;-54
2022/12/09 06:26:38;;;;;;;9.03;7.60;;;3.40;99.90;;;;;;5012656;28;20173;-53
2022/12/09 06:29:04;;;;;;;9.63;7.57;;;3.40;99.90;;;;;;5012369;28;20189;-52
2022/12/09 06:31:30;;;;;;;9.13;7.60;;;5.80;99.90;;;;;;5012146;28;20179;-52
2022/12/09 06:33:56;;;;;;;9.40;7.40;;;3.50;99.90;;;;;;5011799;28;20689;-56
2022/12/09 06:36:22;;;;;;;9.80;7.37;;;3.50;99.90;;;;;;5011575;28;20442;-51
2022/12/09 06:38:48;;;;;;;8.33;7.00;;;3.50;99.90;;;;;;5012056;28;20188;-52
2022/12/09 06:41:14;;;;;;;9.13;7.53;;;3.50;99.90;;;;;;5011447;28;20455;-53
2022/12/09 06:43:40;;;;;;;8.53;7.33;;;3.50;99.90;;;;;;5010175;28;20227;-54
2022/12/09 06:46:21;;;;;;;8.80;7.23;;;3.50;99.90;;;;;;5011698;28;20419;-52
2022/12/09 06:48:47;;;;;;;9.13;7.47;;;3.60;99.90;;;;;;5011665;28;20176;-53
2022/12/09 06:51:13;;;;;;;8.70;7.63;;;3.60;99.90;;;;;;5011120;28;20450;-52
2022/12/09 06:53:39;;;;;;;11.00;9.30;;;3.60;99.90;;;;;;5009674;28;20196;-51
2022/12/09 06:56:07;;;;;;;12.23;10.57;;;3.60;99.90;;;;;;5011412;28;20426;-53
2022/12/09 06:58:33;;;;;;;9.83;8.63;;;3.60;99.90;;;;;;5011556;28;20189;-52
2022/12/09 07:01:12;;;;;;;11.33;9.33;;;3.60;99.90;;;;;;5011470;28;20696;-53
2022/12/09 07:03:38;;;;;;;10.83;8.83;;;3.70;99.90;;;;;;5008274;28;20274;-52
2022/12/09 07:06:04;;;;;;;11.73;8.70;;;3.70;99.90;;;;;;5010563;28;20181;-52
2022/12/09 07:08:29;;;;;;;10.57;8.27;;;3.70;99.90;;;;;;5010660;28;20179;-52
2022/12/09 07:10:55;;;;;;;10.23;8.90;;;3.70;99.90;;;;;;5020521;28;20171;-55
2022/12/09 07:13:21;;;;;;;10.37;9.27;;;3.70;99.90;;;;;;5031859;28;20196;-56
2022/12/09 07:15:46;;;;;;;11.40;9.57;;;3.70;99.90;;;;;;5013919;28;20653;-52
2022/12/09 07:18:12;;;;;;;10.73;8.97;;;3.80;99.90;;;;;;5011948;28;20184;-53
2022/12/09 07:20:37;;;;;;;10.13;8.70;;;3.80;99.90;;;;;;5010645;28;20204;-56
2022/12/09 07:23:03;;;;;;;12.53;10.60;;;3.80;99.90;;;;;;5017335;28;20168;-54
2022/12/09 07:25:28;;;;;;;14.30;11.20;;;3.90;99.90;;;;;;5010136;28;20176;-53
2022/12/09 07:27:54;;;;;;;16.43;12.73;;;4.00;99.90;;;;;;5025896;28;20203;-56
2022/12/09 07:30:19;;;;;;;11.47;9.60;;;4.00;99.90;;;;;;5028447;28;20895;-52
2022/12/09 07:32:45;;;;;;;12.37;10.00;;;4.10;99.90;;;;;;5010512;28;20581;-54
2022/12/09 07:35:10;;;;;;;11.67;10.43;;;3.90;99.90;;;;;;5010545;28;20725;-53
2022/12/09 07:37:36;;;;;;;12.03;10.30;;;4.00;99.90;;;;;;5009452;28;20503;-56
2022/12/09 07:40:02;;;;;;;11.60;10.00;;;4.10;99.90;;;;;;5010725;28;20183;-52
2022/12/09 07:42:27;;;;;;;12.30;10.37;;;4.30;99.90;;;;;;5010745;28;20270;-52
2022/12/09 07:44:53;;;;;;;11.87;10.40;;;4.50;99.90;;;;;;5010812;28;20195;-54
2022/12/09 07:47:18;;;;;;;13.30;10.33;;;4.50;99.90;;;;;;5010836;28;20172;-56
2022/12/09 07:49:44;;;;;;;12.80;10.67;;;4.60;99.90;;;;;;5011325;28;20172;-54
2022/12/09 07:52:11;;;;;;;12.57;11.07;;;4.70;99.90;;;;;;5009871;28;20188;-52
2022/12/09 07:54:36;;;;;;;11.57;10.37;;;4.70;99.90;;;;;;5010804;28;20744;-55
2022/12/09 07:57:02;;;;;;;12.57;11.00;;;4.80;99.90;;;;;;5011265;28;20208;-56
2022/12/09 07:59:28;;;;;;;12.60;10.83;;;4.80;99.90;;;;;;5011243;28;20545;-54
2022/12/09 08:01:53;;;;;;;13.87;11.87;;;4.90;99.90;;;;;;5010513;28;20192;-52
2022/12/09 08:04:19;;;;;;;16.50;14.03;;;5.00;99.90;;;;;;5010153;28;20498;-53
2022/12/09 08:06:44;;;;;;;37.93;28.97;;;5.00;99.90;;;;;;5010600;28;20172;-56
2022/12/09 08:09:11;;;;;;;36.00;28.27;;;5.10;99.90;;;;;;5010332;28;20618;-56
2022/12/09 08:11:37;;;;;;;21.02;18.90;;;5.10;99.90;;;;;;5013849;28;20424;-54
2022/12/09 08:14:06;;;;;;;14.87;12.80;;;4.80;99.90;;;;;;5019572;28;20200;-54
2022/12/09 08:16:32;;;;;;;13.23;11.47;;;4.90;99.90;;;;;;5010939;28;20251;-51
2022/12/09 08:18:58;;;;;;;14.87;12.50;;;5.10;99.90;;;;;;5010443;28;20223;-52
2022/12/09 08:21:27;;;;;;;14.07;11.90;;;5.20;99.90;;;;;;5010716;28;20200;-56
2022/12/09 08:23:54;;;;;;;14.03;11.43;;;5.30;99.90;;;;;;5012801;28;20204;-54
2022/12/09 08:26:21;;;;;;;14.43;11.93;;;5.30;99.90;;;;;;5025026;28;20204;-54
2022/12/09 08:28:48;;;;;;;14.17;11.27;;;5.40;99.90;;;;;;5034626;28;20210;-56
2022/12/09 08:31:17;;;;;;;12.03;10.43;;;5.40;99.90;;;;;;5034845;28;20172;-56
2022/12/09 08:33:42;;;;;;;11.53;9.93;;;5.40;99.90;;;;;;5034444;28;20187;-54
2022/12/09 08:36:11;;;;;;;12.07;10.00;;;5.30;99.90;;;;;;5034112;28;20179;-54
2022/12/09 08:38:37;;;;;;;11.03;9.80;;;5.40;99.90;;;;;;5014157;28;20226;-54
2022/12/09 08:41:12;;;;;;;12.80;10.47;;;5.50;99.90;;;;;;4995058;28;20268;-56
2022/12/09 08:43:38;;;;;;;13.37;10.93;;;5.40;99.90;;;;;;4995771;28;20271;-52
2022/12/09 08:46:03;;;;;;;17.63;14.90;;;5.40;99.90;;;;;;5013860;28;20265;-55
2022/12/09 08:48:29;;;;;;;15.13;12.70;;;5.40;99.90;;;;;;5013684;28;20766;-55
2022/12/09 08:50:54;;;;;;;12.87;10.93;;;5.50;99.90;;;;;;5013572;28;20207;-58
2022/12/09 08:53:20;;;;;;;12.53;9.83;;;5.60;99.90;;;;;;5013443;28;20246;-56
2022/12/09 08:55:45;;;;;;;10.77;9.60;;;5.80;99.90;;;;;;5013909;28;20538;-53
2022/12/09 08:58:11;;;;;;;11.23;9.33;;;;;;;;;;5013015;28;20339;-54
2022/12/09 09:00:37;;;;;;;9.63;8.53;;;;;;;;;;5012951;28;20204;-56
2022/12/09 09:03:04;;;;;;;12.93;10.30;;;;;;;;;;5014106;28;20268;-54
2022/12/09 09:05:30;;;;;;;11.87;9.17;;;;;;;;;;5012878;28;20177;-53
2022/12/09 09:07:56;;;;;;;11.57;9.70;;;;;;;;;;5013438;28;20185;-54
2022/12/09 09:10:22;;;;;;;14.63;11.53;;;;;;;;;;5013799;28;20176;-54
2022/12/09 09:12:48;;;;;;;11.73;9.87;;;;;;;;;;5014485;28;20519;-51
2022/12/09 09:15:14;;;;;;;14.73;11.77;;;;;;;;;;5013176;28;20279;-55
2022/12/09 09:17:39;;;;;;;22.90;18.10;;;6.40;99.90;;;;;;5013682;28;20215;-51
2022/12/09 09:20:06;;;;;;;19.77;13.93;;;;;;;;;;5013834;28;20211;-55
2022/12/09 09:22:32;;;;;;;15.77;11.80;;;7.00;99.90;;;;;;5014039;28;20626;-52
2022/12/09 09:24:58;;;;;;;23.90;16.50;;;;;;;;;;5013601;28;20243;-55
2022/12/09 09:27:24;;;;;;;12.47;10.40;;;;;;;;;;5014681;28;20215;-52
2022/12/09 09:29:50;;;;;;;10.83;9.37;;;;;;;;;;5014237;28;20185;-53
2022/12/09 09:32:16;;;;;;;11.67;8.93;;;;;;;;;;5013888;28;20604;-53
2022/12/09 09:34:44;;;;;;;11.23;8.90;;;;;;;;;;5012537;28;20201;-52
2022/12/09 09:37:10;;;;;;;9.63;8.63;;;;;;;;;;5013498;28;20192;-54
2022/12/09 09:39:35;;;;;;;9.83;8.43;;;8.70;99.90;;;;;;5013760;28;20719;-55
2022/12/09 09:42:04;;;;;;;8.93;7.90;;;8.70;99.90;;;;;;5013452;28;20549;-53
2022/12/09 09:44:36;;;;;;;9.60;8.60;;;9.80;99.90;;;;;;5013417;28;20212;-56
2022/12/09 09:47:10;;;;;;;11.57;9.20;;;11.20;99.90;;;;;;5013447;28;20184;-52
2022/12/09 09:49:42;;;;;;;10.33;7.60;;;12.40;99.40;;;;;;5013534;28;20230;-56
2022/12/09 09:52:15;;;;;;;8.73;7.67;;;12.90;96.00;;;;;;5012753;28;20216;-53
2022/12/09 09:54:41;;;;;;;7.97;7.17;;;12.80;95.70;;;;;;5013365;28;20204;-52
2022/12/09 09:57:19;;;;;;;8.60;7.70;;;12.70;95.60;;;;;;5013650;28;20646;-52
2022/12/09 09:59:53;;;;;;;8.33;7.17;;;12.60;95.60;;;;;;5013349;28;20176;-56
2022/12/09 10:02:35;;;;;;;10.53;9.43;;;12.30;95.40;;;;;;5013286;28;20281;-54
2022/12/09 10:05:18;;;;;;;8.63;7.73;;;12.10;95.70;;;;;;5012218;28;20607;-56
2022/12/09 10:07:51;;;;;;;7.77;6.97;;;11.60;95.20;;;;;;5013389;28;20255;-52
2022/12/09 10:10:26;;;;;;;8.77;7.87;;;11.10;95.80;;;;;;5013139;28;20173;-52
2022/12/09 10:13:09;;;;;;;9.00;7.60;;;10.70;96.40;;;;;;5013244;28;20195;-55
2022/12/09 10:16:10;;;;;;;8.57;7.53;;;10.30;96.30;;;;;;5012784;28;20173;-53
2022/12/09 10:18:43;;;;;;;8.07;7.27;;;9.80;98.00;;;;;;5013198;28;20628;-57
2022/12/09 10:21:18;;;;;;;8.37;7.47;;;9.30;98.70;;;;;;5012812;28;20207;-56
2022/12/09 10:23:45;;;;;;;9.80;8.80;;;9.00;99.20;;;;;;5112122;23;20214;-58
2022/12/09 10:26:22;;;;;;;9.47;7.97;;;8.80;99.90;;;;;;5056350;28;20188;-62
2022/12/09 10:28:54;;;;;;;9.87;8.63;;;8.30;99.60;;;;;;5026607;28;20164;-61
2022/12/09 10:31:20;;;;;;;9.03;8.13;;;8.80;99.90;;;;;;5025345;28;20195;-59
2022/12/09 10:33:45;;;;;;;9.33;8.33;;;8.40;99.90;;;;;;5025645;28;20249;-61
2022/12/09 10:36:26;;;;;;;9.60;8.23;;;8.90;99.90;;;;;;5026166;28;20223;-60
2022/12/09 10:38:52;;;;;;;9.63;8.03;;;7.80;99.90;;;;;;5026813;28;20179;-60
2022/12/09 10:44:25;;;;;;;12.03;10.20;;;8.20;99.90;;;;;;5022834;28;20227;-59
2022/12/09 10:47:20;;;;;;;9.97;8.83;;;7.20;99.90;;;;;;5023944;28;20192;-60
2022/12/09 10:49:49;;;;;;;11.83;10.57;;;7.00;99.90;;;;;;5024958;28;20172;-62
2022/12/09 10:52:25;;;;;;;12.20;10.90;;;7.10;99.90;;;;;;5023806;28;20251;-61
2022/12/09 10:54:51;;;;;;;11.20;9.80;;;7.10;99.90;;;;;;5025335;28;20195;-60
2022/12/09 10:57:16;;;;;;;10.20;9.10;;;7.00;99.90;;;;;;5026297;28;20176;-60
2022/12/09 10:59:56;;;;;;;11.07;9.47;;;6.90;99.90;;;;;;5025172;28;20188;-62
2022/12/09 11:02:22;;;;;;;12.60;11.23;;;6.90;99.90;;;;;;5025280;28;20215;-61
2022/12/09 11:04:49;;;;;;;12.00;9.90;;;6.80;99.90;;;;;;5023548;28;20200;-61
2022/12/09 11:07:25;;;;;;;18.70;10.53;;;7.20;99.90;;;;;;5022282;28;20168;-61
2022/12/09 11:10:06;;;;;;;10.83;9.40;;;6.80;99.90;;;;;;5024629;28;20234;-60
2022/12/09 11:12:38;;;;;;;12.43;9.83;;;6.90;99.90;;;;;;5025845;28;20179;-58
2022/12/09 11:15:05;;;;;;;12.73;11.40;;;7.90;99.90;;;;;;5023190;28;20231;-60
2022/12/09 11:17:34;;;;;;;14.57;13.03;;;7.10;99.90;;;;;;5024389;28;20173;-58
2022/12/09 11:20:17;;;;;;;11.60;10.30;;;7.10;99.90;;;;;;5024975;28;20660;-59
2022/12/09 11:22:44;;;;;;;11.67;10.10;;;7.10;99.90;;;;;;5024638;28;20207;-62
2022/12/09 11:25:24;;;;;;;13.90;10.90;;;7.40;99.90;;;;;;5024665;28;20302;-58
2022/12/09 11:27:59;;;;;;;13.93;11.37;;;8.10;99.90;;;;;;5025582;28;20178;-61
2022/12/09 11:30:35;;;;;;;11.83;9.53;;;8.10;99.90;;;;;;5024888;28;20602;-62
2022/12/09 11:33:12;;;;;;;12.87;11.40;;;7.20;99.90;;;;;;5023943;28;20267;-59
2022/12/09 11:35:44;;;;;;;12.70;10.23;;;7.30;99.90;;;;;;5024718;28;20192;-60
2022/12/09 11:38:21;;;;;;;11.77;9.70;;;7.30;99.90;;;;;;5025583;28;20168;-59
2022/12/09 11:41:11;;;;;;;11.90;9.90;;;7.30;99.90;;;;;;5025239;28;20214;-59
2022/12/09 11:43:41;;;;;;;11.30;9.67;;;7.30;99.90;;;;;;5024522;28;20667;-60
2022/12/09 11:46:13;;;;;;;12.00;9.17;;;7.40;99.90;;;;;;5025472;28;20242;-55
2022/12/09 11:48:46;;;;;;;11.50;9.20;;;7.70;99.90;;;;;;5024857;28;20172;-62
2022/12/09 11:51:22;;;;;;;11.70;9.13;;;7.30;99.90;;;;;;5024732;28;20231;-60
2022/12/09 11:53:49;;;;;;;10.97;9.70;;;7.40;99.90;;;;;;5024404;28;20196;-61
2022/12/09 11:56:21;;;;;;;11.13;9.93;;;7.40;99.90;;;;;;5023102;28;20180;-59
2022/12/09 11:58:53;;;;;;;11.83;10.10;;;7.20;99.90;;;;;;5027166;28;20172;-61
2022/12/09 12:01:31;;;;;;;13.27;10.53;;;7.50;99.90;;;;;;5029297;28;20284;-61
2022/12/09 12:04:04;;;;;;;12.33;10.97;;;7.10;99.90;;;;;;5027976;28;20612;-61
2022/12/09 12:06:48;;;;;;;13.00;11.60;;;7.90;99.90;;;;;;5027218;28;20519;-58
2022/12/09 12:09:14;;;;;;;13.40;10.87;;;;;;;;;;5028806;28;20226;-57
2022/12/09 12:11:44;;;;;;;12.33;11.03;;;;;;;;;;5029854;28;20172;-61
2022/12/09 12:14:15;;;;;;;15.17;12.23;;;;;;;;;;5028791;28;20207;-60
2022/12/09 12:17:07;;;;;;;12.70;11.23;;;;;;;;;;5029134;28;20184;-61
2022/12/09 12:19:34;;;;;;;14.30;11.43;;;;;;;;;;5028289;28;20204;-59
2022/12/09 12:22:13;;;;;;;14.30;12.17;;;;;;;;;;5029383;28;20200;-61
2022/12/09 12:25:06;;;;;;;13.80;10.90;;;7.60;99.90;;;;;;5028468;28;20211;-61
2022/12/09 12:27:54;;;;;;;11.43;9.80;;;7.70;99.90;;;;;;5029443;28;20176;-61
2022/12/09 12:30:23;;;;;;;10.83;9.33;;;7.50;99.90;;;;;;5028396;28;20211;-62
2022/12/09 12:32:52;;;;;;;12.07;9.97;;;7.50;99.90;;;;;;5028124;28;20634;-60
2022/12/09 12:35:32;;;;;;;13.43;11.00;;;8.20;99.90;;;;;;5026072;28;20196;-61
2022/12/09 12:38:12;;;;;;;13.23;10.07;;;7.80;99.90;;;;;;5028433;28;20232;-61
2022/12/09 12:40:38;;;;;;;12.47;10.13;;;;;;;;;;5027805;28;20206;-60
2022/12/09 12:46:15;;;;;;;12.83;9.43;;;;;;;;;;5029498;28;20203;-60
2022/12/09 12:48:41;;;;;;;10.63;8.93;;;;;;;;;;5028098;28;20192;-59
2022/12/09 12:51:07;;;;;;;11.57;8.63;;;;;;;;;;5027216;28;20184;-61
2022/12/09 12:53:50;;;;;;;14.03;10.80;;;7.60;99.90;;;;;;5026076;28;20195;-60
2022/12/09 12:56:57;;;;;;;14.93;10.60;;;7.30;99.90;;;;;;5027400;28;20605;-60
2022/12/09 12:59:26;;;;;;;10.80;9.57;;;;;;;;;;5025356;28;20241;-59
2022/12/09 13:01:53;;;;;;;12.70;9.93;;;;;;;;;;5025352;28;20223;-61
2022/12/09 13:04:22;;;;;;;10.93;9.73;;;;;;;;;;5024900;28;20279;-58
2022/12/09 13:07:11;;;;;;;11.87;9.30;;;7.40;99.90;;;;;;5025041;28;20231;-58
2022/12/09 13:10:02;;;;;;;11.83;9.53;;;7.30;99.90;;;;;;5023371;28;20311;-58
2022/12/09 13:12:55;;;;;;;13.67;9.90;;;;;;;;;;5024169;28;20268;-58
2022/12/09 13:15:31;;;;;;;11.03;9.37;;;;;;;;;;5025199;28;20207;-60